Terminal Aerodrome Forecast
Issued by NWS

Home | Current Version | Previous Version | Text Only | Print | Product List | Glossary On
Versions: 1 2 3 4 5 6 7 8 9 10 11 12
000
FTUS45 KTFX 220520
TAFGTF
TAF
KGTF 220520Z 2206/2306 VRB06KT P6SM SKC
     FM221800 05007KT P6SM SCT080
     FM222000 06008KT P6SM VCTS SCT060CB BKN100
     FM230100 07009KT P6SM SCT080=

USA.gov is the U.S. government's official web portal to all federal, state and local government web resources and services.